Time;durP1;ratioP1;P1;durP2;ratioP2;P2;SDS_P1;SDS_P2;PMS_P1;PMS_P2;Temp;Humidity;BMP_temperature;BMP_pressure;BME280_temperature;BME280_humidity;BME280_pressure;Samples;Min_cycle;Max_cycle;Signal;HPM_P1;HPM_P2
2022/12/08 00:02:03;;;;;;;14.15;9.85;;;;;;;;;;8333478;28;20356;-62
2022/12/08 00:10:23;;;;;;;17.83;10.60;;;;;;;;;;8339553;28;20086;-63
2022/12/08 00:14:25;;;;;;;14.73;10.70;;;;;;;;;;8338643;28;20025;-62
2022/12/08 00:18:25;;;;;;;18.48;10.63;;;;;;;;;;8336446;28;20362;-62
2022/12/08 00:22:25;;;;;;;15.93;10.02;;;;;;;;;;8340067;28;20765;-62
2022/12/08 00:26:25;;;;;;;17.10;10.35;;;;;;;;;;8340544;28;20452;-62
2022/12/08 00:30:26;;;;;;;18.30;10.57;;;;;;;;;;8340355;28;20037;-62
2022/12/08 00:34:26;;;;;;;18.58;10.93;;;;;;;;;;8337906;28;20275;-62
2022/12/08 00:38:26;;;;;;;17.88;10.73;;;;;;;;;;8341069;28;20029;-62
2022/12/08 00:42:26;;;;;;;17.35;10.75;;;;;;;;;;8341850;28;20387;-62
2022/12/08 00:46:26;;;;;;;17.00;10.30;;;;;;;;;;8336494;28;20335;-63
2022/12/08 00:50:27;;;;;;;18.52;11.00;;;;;;;;;;8337565;28;20184;-62
2022/12/08 00:54:27;;;;;;;16.38;10.25;;;;;;;;;;8336646;28;20020;-62
2022/12/08 00:58:27;;;;;;;16.42;10.68;;;;;;;;;;8341635;28;20033;-62
2022/12/08 01:02:27;;;;;;;14.83;9.63;;;;;;;;;;8337350;28;20041;-62
2022/12/08 01:06:27;;;;;;;15.60;9.70;;;;;;;;;;8334699;28;20293;-62
2022/12/08 01:10:28;;;;;;;15.27;9.60;;;;;;;;;;8335668;28;20058;-62
2022/12/08 01:14:28;;;;;;;14.82;9.77;;;;;;;;;;8335562;28;20021;-61
2022/12/08 01:18:28;;;;;;;17.45;10.90;;;;;;;;;;8335313;28;20044;-61
2022/12/08 01:22:29;;;;;;;15.60;9.25;;;;;;;;;;8337286;28;20021;-63
2022/12/08 01:26:29;;;;;;;14.37;9.70;;;;;;;;;;8335313;28;20771;-62
2022/12/08 01:30:29;;;;;;;15.68;10.30;;;;;;;;;;8336227;28;20263;-64
2022/12/08 01:34:29;;;;;;;15.17;9.90;;;;;;;;;;8333965;28;20029;-63
2022/12/08 01:38:30;;;;;;;14.63;9.38;;;;;;;;;;8337503;28;20271;-62
2022/12/08 01:42:33;;;;;;;16.65;10.50;;;;;;;;;;8337152;28;20693;-62
2022/12/08 01:46:34;;;;;;;14.18;9.60;;;;;;;;;;8337001;28;20033;-61
2022/12/08 01:50:34;;;;;;;14.13;9.50;;;;;;;;;;8335016;28;20032;-63
2022/12/08 01:54:43;;;;;;;14.80;10.23;;;;;;;;;;8335395;28;20804;-63
2022/12/08 01:58:46;;;;;;;16.38;9.65;;;;;;;;;;8337189;28;20307;-63
2022/12/08 02:03:04;;;;;;;16.27;9.57;;;;;;;;;;8334529;28;20036;-62
2022/12/08 02:07:05;;;;;;;17.02;9.98;;;;;;;;;;8336424;28;20036;-62
2022/12/08 02:11:10;;;;;;;16.17;9.60;;;;;;;;;;8333657;28;20028;-63
2022/12/08 02:15:10;;;;;;;18.52;10.32;;;;;;;;;;8336939;28;20051;-63
2022/12/08 02:19:10;;;;;;;14.05;9.75;;;;;;;;;;8337543;28;20079;-62
2022/12/08 02:23:10;;;;;;;15.02;9.98;;;;;;;;;;8335126;28;20106;-63
2022/12/08 02:27:20;;;;;;;18.15;10.20;;;;;;;;;;8351077;28;20112;-61
2022/12/08 02:31:38;;;;;;;15.10;9.02;;;;;;;;;;8340222;28;20760;-62
2022/12/08 02:35:53;;;;;;;14.43;9.40;;;;;;;;;;8344743;28;20029;-62
2022/12/08 02:39:56;;;;;;;16.67;9.70;;;;;;;;;;8349756;28;20430;-63
2022/12/08 02:44:15;;;;;;;13.38;9.52;;;;;;;;;;8344747;28;21102;-63
2022/12/08 02:48:16;;;;;;;16.88;9.63;;;;;;;;;;8342845;28;20969;-63
2022/12/08 02:52:16;;;;;;;12.60;8.73;;;;;;;;;;8344081;28;20043;-63
2022/12/08 02:56:35;;;;;;;15.98;9.07;;;;;;;;;;8343985;28;20036;-62
2022/12/08 03:00:54;;;;;;;16.30;9.93;;;;;;;;;;8342335;28;20037;-62
2022/12/08 03:05:12;;;;;;;15.35;10.10;;;;;;;;;;8342317;28;20358;-62
2022/12/08 03:09:12;;;;;;;13.38;9.05;;;;;;;;;;8341909;28;20029;-62
2022/12/08 03:13:19;;;;;;;14.65;9.15;;;;;;;;;;8341070;28;20598;-62
2022/12/08 03:17:22;;;;;;;17.20;10.23;;;;;;;;;;8341896;28;20058;-67
2022/12/08 03:21:22;;;;;;;13.63;8.43;;;;;;;;;;8342065;28;20498;-62
2022/12/08 03:25:23;;;;;;;13.75;8.55;;;;;;;;;;8343131;28;20027;-63
2022/12/08 03:29:23;;;;;;;12.38;7.57;;;;;;;;;;8340254;28;20055;-63
2022/12/08 03:33:26;;;;;;;12.63;8.02;;;;;;;;;;8341818;28;20783;-62
2022/12/08 03:37:27;;;;;;;12.93;7.80;;;;;;;;;;8342055;28;20478;-62
2022/12/08 03:41:27;;;;;;;14.30;7.65;;;;;;;;;;8342555;28;20054;-62
2022/12/08 03:45:27;;;;;;;9.47;6.87;;;;;;;;;;8341229;28;20047;-64
2022/12/08 03:49:28;;;;;;;11.68;7.40;;;;;;;;;;8344579;28;20328;-62
2022/12/08 03:53:28;;;;;;;10.98;7.28;;;;;;;;;;8343277;28;20488;-63
2022/12/08 03:57:28;;;;;;;12.77;7.93;;;;;;;;;;8344846;28;20113;-62
2022/12/08 04:01:28;;;;;;;11.90;7.43;;;;;;;;;;8339494;28;20083;-63
2022/12/08 04:05:28;;;;;;;10.80;6.90;;;;;;;;;;8342483;28;20119;-62
2022/12/08 04:09:29;;;;;;;10.68;6.88;;;;;;;;;;8341831;28;20271;-62
2022/12/08 04:13:29;;;;;;;9.40;6.53;;;;;;;;;;8341329;28;20945;-63
2022/12/08 04:17:29;;;;;;;13.10;7.40;;;;;;;;;;8339601;28;20330;-62
2022/12/08 04:21:29;;;;;;;9.88;6.35;;;;;;;;;;8341257;28;20036;-62
2022/12/08 04:25:31;;;;;;;11.63;7.03;;;;;;;;;;8339992;28;20024;-62
2022/12/08 04:29:31;;;;;;;13.23;7.25;;;;;;;;;;8340208;28;20040;-62
2022/12/08 04:33:32;;;;;;;9.50;6.70;;;;;;;;;;8340263;28;20029;-62
2022/12/08 04:37:32;;;;;;;8.55;6.60;;;;;;;;;;8341907;28;20049;-63
2022/12/08 04:41:32;;;;;;;8.25;6.35;;;;;;;;;;8337967;28;20056;-62
2022/12/08 04:45:32;;;;;;;11.63;6.82;;;;;;;;;;8338951;28;20145;-62
2022/12/08 04:49:33;;;;;;;9.30;6.40;;;;;;;;;;8338990;28;20139;-62
2022/12/08 04:53:33;;;;;;;11.75;7.10;;;;;;;;;;8344524;28;20032;-62
2022/12/08 04:57:33;;;;;;;10.25;6.80;;;;;;;;;;8341573;28;20786;-62
2022/12/08 05:01:33;;;;;;;8.57;6.30;;;;;;;;;;8339694;28;20032;-62
2022/12/08 05:05:34;;;;;;;9.00;6.45;;;;;;;;;;8344154;28;20033;-62
2022/12/08 05:09:34;;;;;;;10.17;6.70;;;;;;;;;;8340887;28;20039;-62
2022/12/08 05:13:34;;;;;;;10.03;7.13;;;;;;;;;;8345125;28;20270;-62
2022/12/08 05:17:34;;;;;;;11.25;6.95;;;;;;;;;;8336175;28;20306;-65
2022/12/08 05:21:35;;;;;;;11.97;6.93;;;;;;;;;;8338653;28;20083;-62
2022/12/08 05:25:35;;;;;;;11.15;7.38;;;;;;;;;;8337242;28;20270;-61
2022/12/08 05:29:35;;;;;;;8.53;5.90;;;;;;;;;;8338996;28;20139;-62
2022/12/08 05:33:35;;;;;;;7.77;5.70;;;;;;;;;;8338351;28;20291;-62
2022/12/08 05:37:35;;;;;;;9.13;6.13;;;;;;;;;;8336289;28;20259;-62
2022/12/08 05:41:36;;;;;;;9.18;5.97;;;;;;;;;;8336915;28;20024;-63
2022/12/08 05:45:36;;;;;;;6.40;5.38;;;;;;;;;;8337670;28;20033;-62
2022/12/08 05:49:36;;;;;;;9.88;5.57;;;;;;;;;;8333813;28;20056;-62
2022/12/08 05:53:36;;;;;;;6.70;5.10;;;;;;;;;;8336559;28;20076;-63
2022/12/08 05:57:36;;;;;;;8.13;5.90;;;;;;;;;;8336184;28;20028;-61
2022/12/08 06:01:37;;;;;;;8.82;5.63;;;;;;;;;;8337845;28;20048;-62
2022/12/08 06:05:39;;;;;;;7.20;5.35;;;;;;;;;;8335946;28;20029;-63
2022/12/08 06:09:39;;;;;;;8.88;5.47;;;;;;;;;;8338987;28;20036;-62
2022/12/08 06:13:39;;;;;;;6.60;4.78;;;;;;;;;;8337277;28;20035;-62
2022/12/08 06:17:39;;;;;;;7.17;5.00;;;;;;;;;;8337624;28;20039;-62
2022/12/08 06:21:40;;;;;;;8.43;5.50;;;;;;;;;;8336774;28;20283;-62
2022/12/08 06:25:40;;;;;;;6.78;5.30;;;;;;;;;;8335877;28;20028;-62
2022/12/08 06:29:40;;;;;;;7.30;5.40;;;;;;;;;;8337065;28;20023;-62
2022/12/08 06:33:41;;;;;;;6.78;5.38;;;;;;;;;;8334766;28;20314;-61
2022/12/08 06:37:41;;;;;;;7.68;5.25;;;;;;;;;;8336488;28;20037;-62
2022/12/08 06:46:00;;;;;;;9.48;5.68;;;;;;;;;;8336128;28;20044;-63
2022/12/08 06:50:01;;;;;;;8.60;5.55;;;;;;;;;;8336632;28;20029;-63
2022/12/08 06:54:01;;;;;;;8.00;5.38;;;;;;;;;;8335793;28;20074;-63
2022/12/08 06:58:01;;;;;;;9.70;5.90;;;;;;;;;;8334927;28;20021;-64
2022/12/08 07:02:01;;;;;;;8.30;5.67;;;;;;;;;;8336255;28;20048;-62
2022/12/08 07:06:02;;;;;;;9.50;5.83;;;;;;;;;;8335000;28;20325;-62
2022/12/08 07:10:02;;;;;;;8.32;5.78;;;;;;;;;;8337379;28;20730;-63
2022/12/08 07:14:02;;;;;;;9.13;6.45;;;;;;;;;;8338926;28;20064;-63
2022/12/08 07:18:02;;;;;;;7.85;5.00;;;;;;;;;;8337502;28;20082;-63
2022/12/08 07:22:03;;;;;;;7.78;5.50;;;;;;;;;;8342733;28;20482;-62
2022/12/08 07:26:04;;;;;;;6.47;4.90;;;;;;;;;;8340569;28;20021;-64
2022/12/08 07:30:05;;;;;;;8.55;5.07;;;;;;;;;;8342754;28;20028;-64
2022/12/08 07:34:05;;;;;;;7.85;5.22;;;;;;;;;;8340198;28;20742;-63
2022/12/08 07:38:08;;;;;;;6.95;5.05;;;;;;;;;;8338887;28;20032;-63
2022/12/08 07:42:09;;;;;;;6.72;5.28;;;;;;;;;;8339897;28;20051;-63
2022/12/08 07:46:12;;;;;;;8.57;5.75;;;;;;;;;;8341790;28;20784;-63
2022/12/08 07:50:13;;;;;;;6.35;4.90;;;;;;;;;;8340541;28;20167;-63
2022/12/08 07:54:13;;;;;;;8.82;5.70;;;;;;;;;;8337896;28;20868;-63
2022/12/08 07:58:13;;;;;;;7.43;5.13;;;;;;;;;;8340752;28;20020;-64
2022/12/08 08:02:17;;;;;;;9.05;5.43;;;;;;;;;;8338618;28;20060;-62
2022/12/08 08:06:17;;;;;;;8.32;6.13;;;;;;;;;;8339517;28;20039;-64
2022/12/08 08:10:17;;;;;;;10.95;5.38;;;;;;;;;;8340068;28;20174;-62
2022/12/08 08:14:18;;;;;;;10.88;5.55;;;;;;;;;;8338429;28;20039;-62
2022/12/08 08:18:18;;;;;;;8.27;4.80;;;;;;;;;;8338397;28;20068;-63
2022/12/08 08:22:18;;;;;;;7.35;5.20;;;;;;;;;;8339408;28;20802;-64
2022/12/08 08:26:19;;;;;;;8.20;5.35;;;;;;;;;;8340596;28;20112;-63
2022/12/08 08:30:19;;;;;;;5.88;4.45;;;;;;;;;;8337536;28;20036;-63
2022/12/08 08:34:19;;;;;;;5.80;3.95;;;;;;;;;;8337280;28;20597;-63
2022/12/08 08:38:19;;;;;;;6.68;4.10;;;;;;;;;;8338274;28;20051;-63
2022/12/08 08:42:20;;;;;;;4.30;3.40;;;;;;;;;;8338109;28;20032;-62
2022/12/08 08:46:20;;;;;;;7.00;3.90;;;;;;;;;;8338431;28;20029;-64
2022/12/08 08:50:20;;;;;;;4.60;3.40;;;;;;;;;;8336577;28;20060;-63
2022/12/08 08:54:20;;;;;;;5.05;3.35;;;;;;;;;;8338321;28;20060;-64
2022/12/08 08:58:20;;;;;;;4.05;3.13;;;;;;;;;;8338640;28;20182;-64
2022/12/08 09:02:21;;;;;;;4.35;3.33;;;;;;;;;;8337086;28;20144;-63
2022/12/08 09:06:21;;;;;;;5.05;3.60;;;;;;;;;;8335042;28;20067;-63
2022/12/08 09:10:21;;;;;;;4.68;3.70;;;;;;;;;;8336578;28;20788;-62
2022/12/08 09:14:22;;;;;;;4.88;3.60;;;;;;;;;;8337742;28;20436;-63
2022/12/08 09:18:23;;;;;;;5.30;3.20;;;;;;;;;;8337346;28;20079;-63
2022/12/08 09:22:24;;;;;;;6.53;3.60;;;;;;;;;;8337435;28;20529;-62
2022/12/08 09:26:25;;;;;;;6.03;3.55;;;;;;;;;;8337404;28;20068;-63
2022/12/08 09:30:25;;;;;;;6.43;3.75;;;;;;;;;;8338209;28;20037;-63
2022/12/08 09:34:25;;;;;;;5.75;3.67;;;;;;;;;;8337354;28;20104;-62
2022/12/08 09:38:25;;;;;;;4.97;3.33;;;;;;;;;;8336846;28;20115;-66
2022/12/08 09:42:33;;;;;;;4.93;3.20;;;;;;;;;;8336635;28;20028;-63
2022/12/08 09:46:34;;;;;;;4.07;2.83;;;;;;;;;;8336690;28;20033;-64
2022/12/08 09:50:44;;;;;;;6.32;3.80;;;;;;;;;;8339251;28;20278;-63
2022/12/08 09:54:44;;;;;;;4.80;3.67;;;;;;;;;;8336124;28;20029;-63
2022/12/08 09:58:49;;;;;;;10.38;7.25;;;;;;;;;;8337039;28;20567;-69
2022/12/08 10:02:49;;;;;;;6.20;4.32;;;;;;;;;;8332381;28;20048;-63
2022/12/08 10:06:58;;;;;;;6.75;4.40;;;;;;;;;;8334118;28;20028;-63
2022/12/08 10:10:59;;;;;;;8.10;4.20;;;;;;;;;;8334825;28;20025;-63
2022/12/08 10:15:18;;;;;;;6.85;4.40;;;;;;;;;;8333194;28;20397;-63
2022/12/08 10:19:21;;;;;;;4.07;3.63;;;;;;;;;;8332696;28;21024;-63
2022/12/08 10:23:22;;;;;;;5.20;3.20;;;;;;;;;;8334494;28;20021;-62
2022/12/08 10:27:22;;;;;;;5.45;4.03;;;;;;;;;;8339905;28;20860;-63
2022/12/08 10:31:23;;;;;;;5.40;3.78;;;;;;;;;;8334016;28;20374;-63
2022/12/08 10:35:24;;;;;;;6.20;3.72;;;;;;;;;;8330511;28;20052;-63
2022/12/08 10:39:32;;;;;;;5.32;3.50;;;;;;;;;;8330400;28;20025;-63
2022/12/08 10:43:35;;;;;;;4.10;3.40;;;;;;;;;;8335214;28;20017;-63
2022/12/08 10:47:40;;;;;;;6.68;3.63;;;;;;;;;;8333962;28;20037;-63
2022/12/08 10:51:41;;;;;;;4.53;3.25;;;;;;;;;;8339149;28;20486;-64
2022/12/08 10:55:45;;;;;;;4.40;3.38;;;;;;;;;;8336731;28;20025;-62
2022/12/08 10:59:45;;;;;;;;;;;;;;;;;;8340409;28;20024;-64
2022/12/08 11:03:49;;;;;;;4.18;3.30;;;;;;;;;;8338914;28;20035;-62
2022/12/08 11:07:51;;;;;;;4.95;3.53;;;;;;;;;;8342490;28;20024;-62
2022/12/08 11:12:17;;;;;;;7.25;3.80;;;;;;;;;;8341260;28;20025;-62
2022/12/08 11:16:18;;;;;;;4.88;3.33;;;;;;;;;;8337085;28;20033;-63
2022/12/08 11:20:20;;;;;;;3.75;3.33;;;;;;;;;;8340582;28;20110;-63
2022/12/08 11:24:25;;;;;;;4.43;3.40;;;;;;;;;;8341158;28;21890;-63
2022/12/08 11:28:25;;;;;;;5.30;3.55;;;;;;;;;;8342883;28;20017;-66
2022/12/08 11:32:25;;;;;;;5.07;4.00;;;;;;;;;;8340089;28;20132;-63
2022/12/08 11:36:27;;;;;;;5.32;3.80;;;;;;;;;;8341024;28;20095;-63
2022/12/08 11:40:30;;;;;;;4.90;4.20;;;;;;;;;;8341973;28;20032;-63
2022/12/08 11:44:34;;;;;;;5.03;3.72;;;;;;;;;;8340669;28;20086;-64
2022/12/08 11:48:35;;;;;;;;;;;;;;;;;;8340706;28;20064;-63
2022/12/08 11:52:44;;;;;;;5.03;3.72;;;;;;;;;;8339975;28;19913;-64
2022/12/08 11:56:46;;;;;;;4.30;3.65;;;;;;;;;;8338498;28;20523;-64
2022/12/08 12:00:47;;;;;;;4.97;3.58;;;;;;;;;;8338979;28;20136;-63
2022/12/08 12:05:03;;;;;;;8.18;4.05;;;;;;;;;;8338762;28;20423;-63
2022/12/08 12:09:16;;;;;;;6.63;4.22;;;;;;;;;;8342299;28;20017;-64
2022/12/08 12:13:35;;;;;;;9.48;4.20;;;;;;;;;;8340506;28;20658;-63
2022/12/08 12:17:54;;;;;;;5.22;4.07;;;;;;;;;;8338643;28;20132;-63
2022/12/08 12:21:55;;;;;;;5.43;4.10;;;;;;;;;;8339107;28;20648;-63
2022/12/08 12:26:00;;;;;;;5.05;4.25;;;;;;;;;;8338075;28;20032;-62
2022/12/08 12:30:01;;;;;;;8.20;4.20;;;;;;;;;;8334424;28;20075;-63
2022/12/08 12:34:15;;;;;;;9.90;3.80;;;;;;;;;;8337533;28;20044;-64
2022/12/08 12:42:47;;;;;;;5.03;3.85;;;;;;;;;;8337634;28;20639;-63
2022/12/08 12:46:49;;;;;;;;;;;;;;;;;;8340175;28;20029;-64
2022/12/08 12:50:50;;;;;;;6.40;3.90;;;;;;;;;;8340982;28;20404;-64
2022/12/08 12:54:50;;;;;;;4.60;3.28;;;;;;;;;;8333399;28;20375;-64
2022/12/08 12:58:52;;;;;;;3.47;2.83;;;;;;;;;;8336553;28;20426;-63
2022/12/08 13:02:53;;;;;;;5.60;3.28;;;;;;;;;;8337687;28;20041;-64
2022/12/08 13:06:54;;;;;;;3.63;2.88;;;;;;;;;;8337070;28;20025;-63
2022/12/08 13:10:57;;;;;;;5.40;2.97;;;;;;;;;;8334620;28;20170;-63
2022/12/08 13:15:01;;;;;;;4.87;3.20;;;;;;;;;;8329228;28;20143;-63
2022/12/08 13:19:12;;;;;;;3.78;2.83;;;;;;;;;;8352410;28;20068;-63
2022/12/08 13:23:40;;;;;;;3.83;2.90;;;;;;;;;;8337534;28;20572;-63
2022/12/08 13:27:50;;;;;;;3.67;2.92;;;;;;;;;;8339851;28;20017;-63
2022/12/08 13:31:58;;;;;;;3.95;2.33;;;;;;;;;;8337322;28;20072;-63
2022/12/08 13:36:04;;;;;;;5.80;3.05;;;;;;;;;;8339795;28;20108;-64
2022/12/08 13:40:08;;;;;;;4.60;2.88;;;;;;;;;;8339490;28;20036;-64
2022/12/08 13:44:31;;;;;;;7.05;2.90;;;;;;;;;;8337029;28;20048;-63
2022/12/08 13:48:39;;;;;;;3.53;2.88;;;;;;;;;;8334892;28;20078;-63
2022/12/08 13:52:46;;;;;;;7.22;2.95;;;;;;;;;;8337021;28;20491;-64
2022/12/08 13:56:47;;;;;;;4.97;3.00;;;;;;;;;;8328525;28;20021;-63
2022/12/08 14:00:55;;;;;;;4.47;3.10;;;;;;;;;;8315915;28;20167;-64
2022/12/08 14:04:56;;;;;;;5.03;4.38;;;;;;;;;;8331283;28;20024;-64
2022/12/08 14:08:58;;;;;;;9.68;3.78;;;;;;;;;;8328095;28;20025;-63
2022/12/08 14:13:04;;;;;;;6.18;4.20;;;;;;;;;;8337145;28;20833;-64
2022/12/08 14:17:14;;;;;;;5.28;3.65;;;;;;;;;;8328770;28;20648;-63
2022/12/08 14:21:14;;;;;;;3.80;3.45;;;;;;;;;;8343327;28;20110;-63
2022/12/08 14:25:15;;;;;;;6.78;4.18;;;;;;;;;;8342553;28;20025;-63
2022/12/08 14:29:31;;;;;;;6.63;4.13;;;;;;;;;;8342108;28;20359;-64
2022/12/08 14:33:31;;;;;;;4.88;3.72;;;;;;;;;;8343157;28;20599;-63
2022/12/08 14:37:33;;;;;;;6.50;4.13;;;;;;;;;;8342198;28;20354;-63
2022/12/08 14:41:33;;;;;;;4.32;3.72;;;;;;;;;;8343866;28;20420;-63
2022/12/08 14:45:44;;;;;;;5.53;3.55;;;;;;;;;;8342424;28;20071;-63
2022/12/08 14:49:46;;;;;;;6.47;3.75;;;;;;;;;;8337779;28;20021;-63
2022/12/08 14:53:59;;;;;;;3.83;3.28;;;;;;;;;;8341701;28;20531;-63
2022/12/08 14:57:59;;;;;;;4.15;3.13;;;;;;;;;;8340495;28;20059;-64
2022/12/08 15:02:09;;;;;;;4.60;3.10;;;;;;;;;;8343087;28;20041;-64
2022/12/08 15:06:09;;;;;;;5.03;3.60;;;;;;;;;;8343735;28;20211;-63
2022/12/08 15:10:16;;;;;;;4.82;3.47;;;;;;;;;;8339569;28;20024;-64
2022/12/08 15:14:30;;;;;;;4.25;3.28;;;;;;;;;;8341406;28;20390;-63
2022/12/08 15:18:30;;;;;;;;;;;;;;;;;;8339430;28;20386;-64
2022/12/08 15:22:30;;;;;;;6.25;2.90;;;;;;;;;;8340323;28;20643;-64
2022/12/08 15:26:37;;;;;;;8.30;3.23;;;;;;;;;;8339970;28;20436;-63
2022/12/08 15:30:37;;;;;;;4.13;3.40;;;;;;;;;;8335008;28;21033;-63
2022/12/08 15:34:37;;;;;;;5.50;4.15;;;;;;;;;;8338433;28;20029;-63
2022/12/08 15:38:37;;;;;;;6.63;3.73;;;;;;;;;;8338707;28;20036;-63
2022/12/08 15:42:38;;;;;;;5.57;3.65;;;;;;;;;;8342417;28;20329;-63
2022/12/08 15:46:38;;;;;;;4.50;3.33;;;;;;;;;;8335671;28;20609;-63
2022/12/08 15:50:38;;;;;;;4.05;3.33;;;;;;;;;;8336228;28;20023;-63
2022/12/08 15:54:38;;;;;;;6.33;3.60;;;;;;;;;;8338197;28;20040;-64
2022/12/08 15:58:39;;;;;;;4.80;3.50;;;;;;;;;;8339169;28;20291;-63
2022/12/08 16:02:39;;;;;;;5.83;4.10;;;;;;;;;;8340159;28;20040;-63
2022/12/08 16:06:41;;;;;;;7.57;4.57;;;;;;;;;;8339650;28;20278;-63
2022/12/08 16:10:41;;;;;;;6.95;4.07;;;;;;;;;;8336566;28;20279;-63
2022/12/08 16:14:42;;;;;;;5.75;3.60;;;;;;;;;;8339044;28;20028;-63
2022/12/08 16:18:43;;;;;;;4.70;3.95;;;;;;;;;;8335953;28;20045;-63
2022/12/08 16:22:43;;;;;;;7.57;4.30;;;;;;;;;;8331631;28;20584;-63
2022/12/08 16:26:43;;;;;;;5.28;3.90;;;;;;;;;;8331059;28;20485;-63
2022/12/08 16:30:43;;;;;;;10.17;4.93;;;;;;;;;;8333932;28;20856;-64
2022/12/08 16:34:44;;;;;;;5.40;3.80;;;;;;;;;;8339205;28;20266;-64
2022/12/08 16:38:44;;;;;;;10.80;6.68;;;;;;;;;;8339075;28;20072;-63
2022/12/08 16:42:46;;;;;;;9.60;5.15;;;;;;;;;;8352239;28;20900;-64
2022/12/08 16:46:46;;;;;;;13.07;6.25;;;;;;;;;;8334209;28;20626;-63
2022/12/08 16:50:47;;;;;;;10.82;5.70;;;;;;;;;;8336660;28;20092;-64
2022/12/08 16:54:47;;;;;;;7.93;4.40;;;;;;;;;;8336542;28;20028;-64
2022/12/08 16:58:47;;;;;;;6.55;4.05;;;;;;;;;;8338099;28;20427;-63
2022/12/08 17:02:48;;;;;;;7.47;3.67;;;;;;;;;;8334978;28;20078;-63
2022/12/08 17:06:51;;;;;;;5.55;4.05;;;;;;;;;;8337721;28;20478;-64
2022/12/08 17:11:06;;;;;;;4.65;3.95;;;;;;;;;;8335087;28;20032;-64
2022/12/08 17:15:07;;;;;;;5.50;3.92;;;;;;;;;;8333838;28;20761;-63
2022/12/08 17:19:07;;;;;;;6.10;3.85;;;;;;;;;;8337706;28;20121;-63
2022/12/08 17:23:09;;;;;;;5.90;3.67;;;;;;;;;;8337434;28;20037;-63
2022/12/08 17:27:10;;;;;;;10.30;5.90;;;;;;;;;;8336377;28;20016;-64
2022/12/08 17:31:11;;;;;;;13.68;8.50;;;;;;;;;;8333725;28;20068;-63
2022/12/08 17:35:13;;;;;;;13.93;9.20;;;;;;;;;;8333169;28;20024;-63
2022/12/08 17:39:13;;;;;;;15.43;7.05;;;;;;;;;;8338105;28;20661;-63
2022/12/08 17:43:14;;;;;;;14.57;8.32;;;;;;;;;;8338209;28;20355;-63
2022/12/08 17:47:14;;;;;;;13.18;6.88;;;;;;;;;;8334753;28;20786;-63
2022/12/08 17:51:14;;;;;;;6.80;4.38;;;;;;;;;;8335439;28;20025;-63
2022/12/08 17:55:15;;;;;;;4.80;4.03;;;;;;;;;;8336771;28;20535;-64
2022/12/08 17:59:15;;;;;;;8.98;5.82;;;;;;;;;;8336181;28;20040;-63
2022/12/08 18:03:16;;;;;;;7.53;5.10;;;;;;;;;;8337609;28;20036;-63
2022/12/08 18:07:16;;;;;;;7.88;5.00;;;;;;;;;;8334860;28;20126;-63
2022/12/08 18:11:18;;;;;;;6.22;4.60;;;;;;;;;;8341235;28;20060;-63
2022/12/08 18:15:18;;;;;;;5.88;4.50;;;;;;;;;;8324378;28;20555;-63
2022/12/08 18:19:18;;;;;;;6.13;4.75;;;;;;;;;;8325352;28;20450;-62
2022/12/08 18:23:19;;;;;;;6.03;4.28;;;;;;;;;;8324174;28;20789;-62
2022/12/08 18:27:19;;;;;;;8.75;4.30;;;;;;;;;;8327203;28;20892;-62
2022/12/08 18:31:20;;;;;;;5.07;2.80;;;;;;;;;;8323880;28;20084;-62
2022/12/08 18:35:20;;;;;;;5.35;3.70;;;;;;;;;;8326832;28;20446;-62
2022/12/08 18:39:24;;;;;;;5.18;3.70;;;;;;;;;;8321251;28;20028;-62
2022/12/08 18:43:25;;;;;;;5.95;3.95;;;;;;;;;;8323592;28;20468;-63
2022/12/08 18:47:25;;;;;;;4.88;3.45;;;;;;;;;;8321860;28;20040;-62
2022/12/08 18:51:25;;;;;;;6.38;4.50;;;;;;;;;;8324664;28;20061;-62
2022/12/08 18:55:25;;;;;;;4.50;3.90;;;;;;;;;;8325667;28;20028;-62
2022/12/08 18:59:25;;;;;;;4.03;3.38;;;;;;;;;;8322690;28;20279;-62
2022/12/08 19:03:26;;;;;;;5.32;3.10;;;;;;;;;;8319188;28;20132;-62
2022/12/08 19:07:26;;;;;;;5.43;3.72;;;;;;;;;;8327335;28;20032;-62
2022/12/08 19:11:27;;;;;;;8.60;4.50;;;;;;;;;;8331775;28;20501;-62
2022/12/08 19:15:27;;;;;;;7.28;4.68;;;;;;;;;;8330997;28;20279;-62
2022/12/08 19:19:28;;;;;;;9.93;6.27;;;;;;;;;;8328088;28;20024;-62
2022/12/08 19:23:28;;;;;;;12.77;8.23;;;;;;;;;;8330894;28;20377;-62
2022/12/08 19:27:28;;;;;;;8.77;5.32;;;;;;;;;;8326525;28;20127;-62
2022/12/08 19:31:28;;;;;;;7.80;5.03;;;;;;;;;;8327962;28;20520;-63
2022/12/08 19:35:28;;;;;;;11.07;5.25;;;;;;;;;;8327366;28;20764;-62
2022/12/08 19:48:14;;;;;;;6.97;4.43;;;;;;;;;;8308116;28;20425;-62
2022/12/08 19:52:14;;;;;;;6.65;4.55;;;;;;;;;;8330530;28;20356;-63
2022/12/08 19:56:14;;;;;;;5.95;4.88;;;;;;;;;;8329403;28;20302;-62
2022/12/08 20:00:15;;;;;;;8.27;5.40;;;;;;;;;;8327249;28;20062;-63
2022/12/08 20:04:16;;;;;;;10.38;5.75;;;;;;;;;;8330219;28;20033;-62
2022/12/08 20:08:16;;;;;;;7.63;5.03;;;;;;;;;;8329848;28;20128;-62
2022/12/08 20:12:16;;;;;;;9.10;5.50;;;;;;;;;;8331247;28;20456;-62
2022/12/08 20:16:17;;;;;;;7.72;5.53;;;;;;;;;;8325603;28;20735;-63
2022/12/08 20:20:17;;;;;;;10.93;5.60;;;;;;;;;;8329457;28;20043;-62
2022/12/08 20:24:17;;;;;;;9.85;5.90;;;;;;;;;;8331274;28;20109;-62
2022/12/08 20:28:21;;;;;;;7.93;5.82;;;;;;;;;;8328837;28;20490;-62
2022/12/08 20:32:21;;;;;;;10.35;6.55;;;;;;;;;;8328414;28;20267;-62
2022/12/08 20:36:22;;;;;;;7.85;5.93;;;;;;;;;;8331112;28;20028;-62
2022/12/08 20:40:23;;;;;;;8.00;6.28;;;;;;;;;;8331357;28;20198;-63
2022/12/08 20:44:23;;;;;;;11.98;6.97;;;;;;;;;;8329835;28;20052;-62
2022/12/08 20:48:24;;;;;;;10.05;6.25;;;;;;;;;;8327790;28;20427;-62
2022/12/08 20:52:25;;;;;;;8.95;6.50;;;;;;;;;;8328425;28;20388;-62
2022/12/08 20:56:26;;;;;;;10.32;6.75;;;;;;;;;;8327357;28;20493;-62
2022/12/08 21:00:26;;;;;;;8.15;5.78;;;;;;;;;;8330236;28;20120;-63
2022/12/08 21:04:26;;;;;;;8.63;6.07;;;;;;;;;;8332090;28;20056;-62
2022/12/08 21:08:27;;;;;;;8.50;5.88;;;;;;;;;;8333607;28;20271;-63
2022/12/08 21:12:27;;;;;;;7.20;5.85;;;;;;;;;;8335208;28;20028;-62
2022/12/08 21:16:27;;;;;;;9.30;6.18;;;;;;;;;;8331503;28;20886;-64
2022/12/08 21:20:28;;;;;;;8.87;5.87;;;;;;;;;;8335206;28;20421;-62
2022/12/08 21:24:28;;;;;;;13.55;7.82;;;;;;;;;;8332953;28;20294;-63
2022/12/08 21:28:28;;;;;;;10.40;7.03;;;;;;;;;;8333479;28;20025;-63
2022/12/08 21:32:28;;;;;;;12.48;8.43;;;;;;;;;;8333971;28;20044;-62
2022/12/08 21:36:29;;;;;;;11.05;7.55;;;;;;;;;;8332109;28;20024;-64
2022/12/08 21:40:29;;;;;;;12.68;7.22;;;;;;;;;;8331523;28;20025;-62
2022/12/08 21:44:29;;;;;;;12.02;7.53;;;;;;;;;;8334950;28;20763;-63
2022/12/08 21:48:29;;;;;;;9.48;7.32;;;;;;;;;;8335422;28;20581;-63
2022/12/08 21:52:29;;;;;;;15.18;9.32;;;;;;;;;;8333594;28;20559;-63
2022/12/08 21:56:29;;;;;;;11.73;7.75;;;;;;;;;;8332437;28;20500;-62
2022/12/08 22:00:30;;;;;;;12.88;8.15;;;;;;;;;;8331059;28;20517;-63
2022/12/08 22:04:30;;;;;;;11.40;6.60;;;;;;;;;;8332547;28;20113;-63
2022/12/08 22:08:30;;;;;;;11.20;6.90;;;;;;;;;;8332115;28;20131;-62
2022/12/08 22:12:31;;;;;;;10.45;7.65;;;;;;;;;;8333572;28;20589;-63
2022/12/08 22:16:31;;;;;;;8.32;6.40;;;;;;;;;;8329517;28;20049;-63
2022/12/08 22:20:32;;;;;;;9.23;5.97;;;;;;;;;;8332274;28;20028;-63
2022/12/08 22:24:32;;;;;;;10.95;6.57;;;;;;;;;;8332472;28;20322;-63
2022/12/08 22:28:37;;;;;;;8.75;6.32;;;;;;;;;;8335479;28;20020;-63
2022/12/08 22:32:37;;;;;;;13.18;7.32;;;;;;;;;;8328899;28;20070;-62
2022/12/08 22:36:37;;;;;;;11.43;7.50;;;;;;;;;;8333736;28;20024;-62
2022/12/08 22:40:39;;;;;;;13.73;8.13;;;;;;;;;;8331776;28;20276;-64
2022/12/08 22:44:39;;;;;;;14.57;8.95;;;;;;;;;;8337987;28;20385;-63
2022/12/08 22:48:39;;;;;;;14.93;9.07;;;;;;;;;;8336891;28;20040;-62
2022/12/08 22:52:40;;;;;;;17.58;9.02;;;;;;;;;;8338360;28;20592;-63
2022/12/08 22:56:40;;;;;;;14.80;9.38;;;;;;;;;;8338950;28;20297;-63
2022/12/08 23:00:40;;;;;;;13.17;8.80;;;;;;;;;;8341525;28;20083;-64
2022/12/08 23:04:40;;;;;;;13.85;8.43;;;;;;;;;;8338466;28;20286;-62
2022/12/08 23:08:41;;;;;;;13.80;7.85;;;;;;;;;;8339077;28;20066;-63
2022/12/08 23:12:41;;;;;;;12.90;7.88;;;;;;;;;;8338966;28;20594;-62
2022/12/08 23:16:41;;;;;;;12.30;7.85;;;;;;;;;;8335235;28;20797;-62
2022/12/08 23:20:41;;;;;;;15.68;8.05;;;;;;;;;;8341691;28;20473;-63
2022/12/08 23:24:42;;;;;;;11.90;8.00;;;;;;;;;;8339569;28;20029;-62
2022/12/08 23:28:42;;;;;;;14.60;8.02;;;;;;;;;;8341565;28;20291;-63
2022/12/08 23:32:42;;;;;;;11.52;6.72;;;;;;;;;;8339252;28;20547;-62
2022/12/08 23:36:43;;;;;;;12.20;6.97;;;;;;;;;;8340828;28;20033;-63
2022/12/08 23:40:43;;;;;;;11.10;6.72;;;;;;;;;;8341371;28;20278;-63
2022/12/08 23:44:43;;;;;;;12.20;6.60;;;;;;;;;;8341787;28;20032;-63
2022/12/08 23:48:43;;;;;;;11.50;6.63;;;;;;;;;;8340882;28;20040;-63
2022/12/08 23:52:44;;;;;;;11.32;6.90;;;;;;;;;;8341104;28;20040;-63
2022/12/08 23:56:44;;;;;;;10.68;6.80;;;;;;;;;;8339566;28;20486;-64
